Hauptseite
METAR-TAF:

METAR-TAF

Flughäfen :

Flughafen Paris-Charles-de-Gaulle

Paris-Charles De Gaulle, Frankreich

Breite: 49-01N, Länge: 002-32E, Höhe: 118 m

Beobachtung

Neuester Wetterbericht von vor 31 Minuten, um 20:30 UTC
Wind 8 kt aus Nord/Nordost
Temperatur 18°C
Luftfeuchtigkeit 45%
Luftdruck 1023 hPa
Sichtweite 10 km oder mehr
keine Wolken unter 1500 m und keine Kumulonimbus oder Gewitterwolken

METAR: LFPG 202030Z 02008KT CAVOK 18/06 Q1023 NOSIG

Zeit: 23:01 (21:01 UTC)

Prognose

Neuester Wetterbericht von vor 4 Stunden und 1 Minuten, um 17:00 UTC
Gültige Prognose vom 20 um 18 UTC bis 21 um 24 UTC
Wind 10 kt aus Ost/Nordost
Sichtweite 10 km oder mehr
keine Wolken unter 1500 m und keine Kumulonimbus oder Gewitterwolken

TAF: LFPG 201700Z 2018/2124 07010KT CAVOK TX24/2115Z TN11/2105Z

Wetterbeobachtungen und Prognosen von mehr als 4000 Flughäfen (METAR und TAF Bericht).

Die verfügbaren Stationen werden durch gelbe und rote Markierungen auf der Karte dargestellt.

Führen Sie die Maus auf sie, um den Namen der Station zu sehen.

Darauf klicken, um die Beobachtung von Wetterbeobachtungen und Prognosen zu sehen.

Um die Karte zu ändern : klicken Sie auf den grünen Tasten mit einem schwarzen Kreuz Zum Vergrößern, auf den grünen Button mit einem Gedankenstrich zu verkleinern, oder auf die grünen Pfeile für benachbarte Karten.


METAR-TAF: